Aérodrome :
LOGIN :

S'inscrire | Disclaimer

   EN    FR    IT 

 










Légende :    VFR   VFR Marginal   IFR   IFR Intensif   IFR Très Intensif
Visi : 
Plafond : 
>= 8 km
>= 3000ft
5 à 8 km
1000 à 3000 ft
1500m à 5 km
500 à 1000 ft
800 à 1500m
200 à 500 ft
< 800m
< 200 ft
Symboles :   Orages  Brouillard  Fortes neiges  Fortes précipitations  Vent > 20 kt
SIGMETs :   Divers  Orages  Givrage  Turbulence  Onde Orograph.  Cendres Volcan.






- Altitude de l'aérodrome : 821 ft
- Code IATA : LYS


LFLL - Lyon St Exupéry / Satolas

DERNIER METAR :
  • 041530Z 02004KT 340V060 9999 SCT036 BKN160 18/15 Q1013 NOSIG

METARs EXPIRÉS :
  • 041500Z 34005KT 290V010 9999 FEW013TCU BKN040 18/16 Q1013 NOSIG
  • 041430Z 30003KT 260V340 9999 SCT013 OVC046 19/15 Q1013 NOSIG
  • 041400Z 33003KT 290V010 9999 SCT015 OVC053 19/15 Q1013 NOSIG
  • 041330Z VRB02KT 9999 SCT013 SCT033 OVC053 18/15 Q1013 NOSIG
  • 041300Z VRB02KT 9999 -RA FEW011 BKN033 OVC046 18/15 Q1013 NOSIG

TAF AMD TAF LFLL
Valide du 04 à 14h jusqu'au 05 à 18h UTC


041457Z 0414/0518 VRB02KT 9999 BKN050
TEMPO 0415/0510 SHRA SCT014 SCT020TCU BKN025
PROB40
TEMPO 0501/0507 0800 BCFG BKN003
BECMG 0510/0513 CAVOK



MET'MAP, la Météo Aéronautique d'un coup d'oeil ! - Copyright ORBIFLY Décembre 2007 - Disclaimer

ORBIFLY MET'MAP TEAM :

Programmation & Développement : Alexandra Zaïnal
Sur une idée originale de : Baudouin d'Aumeries
Assistance à la programmation : Marc-Olivier Méhu
Soutien technique & logistique : Manuel Goepfert

Contact : metmap@orbifly.com




SOURCES & CREDITS :

   NOAA